Austerlitz, NY (12017)

7:12 PM EST on November 22, 2014 (GMT -0500)
chatham | Change Station
CLOSE
Current Station
Personal Weather Station
Location: Spencertown, NY
Elevation: 1017 ft
Nearby Weather Stations

Elev 1017 ft 42.32 °N, 73.52 °W | Updated 2 minutes ago

Overcast
Overcast
36.7 °F
Feels Like 30 °F
N
10.0
Wind Variable Wind from WSW
Gusts 0.0 mph

Today
High -- | Low -- °F
--% Chance of Precip.
Yesterday
High -- | Low -- °F
Precip. -- in
6:52 AM 4:26 PM
New Moon, 0% visible
Pressure 30.12 in
Visibility 10.0 miles
Clouds Scattered Clouds 3300 ft
Mostly Cloudy 4800 ft
Overcast 6000 ft
Windchill 30 °F
Dew Point 19 °F
Humidity 49%
Rainfall 0.00 in
Snow Depth Not available.
UV 0 out of 12
Pollen .10 out of 12
Air Quality Not available.
Flu Activity Not available.
METAR KPSF 222354Z AUTO 23011G19KT 10SM SCT033 BKN048 OVC060 03/M11 A3007 RMK AO2 SLP200 60000 T00281111 10028 20011 55008 $

More Conditions Fewer Conditions

Pressure 30.12 in
Visibility 10.0 miles
Clouds Scattered Clouds 3300 ft
Mostly Cloudy 4800 ft
Overcast 6000 ft
Windchill 30 °F
Dew Point 19 °F
Humidity 49%
Rainfall 0.00 in
Snow Depth Not available.
UV 0 out of 12
Pollen .10 out of 12
Air Quality Not available.
Flu Activity Not available.
METAR KPSF 222354Z AUTO 23011G19KT 10SM SCT033 BKN048 OVC060 03/M11 A3007 RMK AO2 SLP200 60000 T00281111 10028 20011 55008 $

More Conditions Fewer Conditions

10-Day Weather Forecast

Almanac

Astronomy

Nov. 22, 2014 Rise Set
Actual Time
Civil Twilight
Nautical Twilight
Astronomical Twilight
Moon
Length of Visible Light
Length of Day
Tomorrow will be .
, % of the Moon is Illuminated

Today's Extremes

State Highs State Lows

Community

WunderPhotos

Upload Photos

1,772,931 photos uploaded!

WunderBlogs® & News

Nearby

Air Quality

  Air Quality AQ Index Pollutant
Not available.

Snow Depth

Station Depth Elevation

Earthquake Activity

City Distance Mag. Time & Date
Minimum magnitude displayed is 2.5.

Coastal Water Temperatures

Place Temperature

Nearby Weather Stations